Terminal Aerodrome Forecast
Issued by NWS Sterling, VA

Current Version | Previous Version | Graphics & Text | Print | Product List | Glossary On
Versions: 1 2 3 4 5 6 7 8 9 10 11 12 13 14 15 16 17 18 19 20 21 22 23 24 25 26 27
000
FTUS41 KLWX 252036 AAA
TAFIAD
TAF AMD
KIAD 252036Z 2521/2624 17005KT P6SM OVC040
     FM252320 18012KT P6SM OVC030
     FM260600 19006KT P6SM OVC015
     FM261000 18006KT 5SM BR OVC008
     FM261300 19008KT P6SM BKN015
     FM261700 20013KT P6SM BKN015
     FM261900 21016G27KT P6SM BKN030
     FM262300 21013KT 6SM SHRA OVC030=

USA.gov is the U.S. government's official web portal to all federal, state and local government web resources and services.